地図

経路データ

SID SEASON NUMBER BASIN SUBBASIN NAME ISO_TIME NATURE LAT LON WMO_WIND WMO_PRES WMO_AGENCY TRACK_TYPE DIST2LAND LANDFALL IFLAG USA_AGENCY USA_ATCF_ID USA_LAT USA_LON USA_RECORD USA_STATUS USA_WIND USA_PRES USA_SSHS USA_R34_NE USA_R34_SE USA_R34_SW USA_R34_NW USA_R50_NE USA_R50_SE USA_R50_SW USA_R50_NW USA_R64_NE USA_R64_SE USA_R64_SW USA_R64_NW USA_POCI USA_ROCI USA_RMW USA_EYE TOKYO_LAT TOKYO_LON TOKYO_GRADE TOKYO_WIND TOKYO_PRES TOKYO_R50_DIR TOKYO_R50_LONG TOKYO_R50_SHORT TOKYO_R30_DIR TOKYO_R30_LONG TOKYO_R30_SHORT TOKYO_LAND CMA_LAT CMA_LON CMA_CAT CMA_WIND CMA_PRES HKO_LAT HKO_LON HKO_CAT HKO_WIND HKO_PRES NEWDELHI_LAT NEWDELHI_LON NEWDELHI_GRADE NEWDELHI_WIND NEWDELHI_PRES NEWDELHI_CI NEWDELHI_DP NEWDELHI_POCI REUNION_LAT REUNION_LON REUNION_TYPE REUNION_WIND REUNION_PRES REUNION_TNUM REUNION_CI REUNION_RMW REUNION_R34_NE REUNION_R34_SE REUNION_R34_SW REUNION_R34_NW REUNION_R50_NE REUNION_R50_SE REUNION_R50_SW REUNION_R50_NW REUNION_R64_NE REUNION_R64_SE REUNION_R64_SW REUNION_R64_NW BOM_LAT BOM_LON BOM_TYPE BOM_WIND BOM_PRES BOM_TNUM BOM_CI BOM_RMW BOM_R34_NE BOM_R34_SE BOM_R34_SW BOM_R34_NW BOM_R50_NE BOM_R50_SE BOM_R50_SW BOM_R50_NW BOM_R64_NE BOM_R64_SE BOM_R64_SW BOM_R64_NW BOM_ROCI BOM_POCI BOM_EYE BOM_POS_METHOD BOM_PRES_METHOD NADI_LAT NADI_LON NADI_CAT NADI_WIND NADI_PRES WELLINGTON_LAT WELLINGTON_LON WELLINGTON_WIND WELLINGTON_PRES DS824_LAT DS824_LON DS824_STAGE DS824_WIND DS824_PRES TD9636_LAT TD9636_LON TD9636_STAGE TD9636_WIND TD9636_PRES TD9635_LAT TD9635_LON TD9635_WIND TD9635_PRES TD9635_ROCI NEUMANN_LAT NEUMANN_LON NEUMANN_CLASS NEUMANN_WIND NEUMANN_PRES MLC_LAT MLC_LON MLC_CLASS MLC_WIND MLC_PRES USA_GUST BOM_GUST BOM_GUST_PER REUNION_GUST REUNION_GUST_PER USA_SEAHGT USA_SEARAD_NE USA_SEARAD_SE USA_SEARAD_SW USA_SEARAD_NW STORM_SPEED STORM_DIR
1991338S08181 1992 99 SP MM VAL 1991-12-04 06:00:00 TS -8.40000 -179.500 main 875 864 O___________O_ jtwc_sh SH061992 -8.40000 -179.500 30 -1 -8.40000 -179.500 TC 30 3 150
1991338S08181 1992 99 SP MM VAL 1991-12-04 09:00:00 TS -8.54500 -179.408 main 865 832 P___________P_ SH061992 -8.54500 -179.408 30 -1 -8.54500 -179.408 TC 30 5 158
1991338S08181 1992 99 SP MM VAL 1991-12-04 12:00:00 TS -8.81429 -179.329 30 997 wellington main 833 812 O_______O___O_ jtwc_sh SH061992 -8.70000 -179.300 30 -1 -9.50000 -179.500 30 997 -8.70000 -179.300 TC 30 6 145
1991338S08181 1992 99 SP MM VAL 1991-12-04 15:00:00 TS -9.00108 -179.084 main 813 803 P_______P___P_ SH061992 -8.86499 -179.165 32 -1 -9.54543 -178.760 32 996 -8.86499 -179.165 TC 32 7 120
1991338S08181 1992 99 SP MM VAL 1991-12-04 18:00:00 TS -9.13636 -178.755 35 995 wellington main 807 777 O_______O___O_ jtwc_sh SH061992 -9.00000 -179.000 35 0 -9.50000 -178.100 35 995 -9.00000 -179.000 TC 35 7 102
1991338S08181 1992 99 SP MM VAL 1991-12-04 21:00:00 TS -9.14825 -178.400 main 784 759 P_______P___P_ SH061992 -9.06499 -178.815 37 0 -9.31479 -177.570 35 995 -9.06499 -178.815 TC 37 6 87
1991338S08181 1992 99 SP MM VAL 1991-12-05 00:00:00 TS -9.10000 -178.100 35 995 wellington main 759 735 O_______O___O_ jtwc_sh SH061992 -9.10000 -178.600 40 0 -9.10000 -177.100 35 995 -9.10000 -178.600 TC 40 6 85
1991338S08181 1992 99 SP MM VAL 1991-12-05 03:00:00 TS -9.09003 -177.752 main 735 703 P_______P___P_ SH061992 -9.14998 -178.365 42 0 -8.97013 -176.525 35 995 -9.14998 -178.365 TC 42 7 90
1991338S08181 1992 99 SP MM VAL 1991-12-05 06:00:00 TS -9.10000 -177.433 35 995 wellington main 703 687 O_______O___O_ jtwc_sh SH061992 -9.20000 -178.100 45 0 -8.90000 -176.100 35 995 -9.20000 -178.100 TC 45 5 94
1991338S08181 1992 99 SP MM VAL 1991-12-05 09:00:00 TS -9.12577 -177.233 main 687 664 P_______P___P_ SH061992 -9.24997 -177.815 47 0 -8.87736 -176.070 37 992 -9.24997 -177.815 TC 47 4 100
1991338S08181 1992 99 SP MM VAL 1991-12-05 12:00:00 TS -9.16667 -177.033 40 990 wellington main 664 642 O_______O___O_ jtwc_sh SH061992 -9.30000 -177.500 50 0 -8.90000 -176.100 40 990 -9.30000 -177.500 TC 50 5 100
1991338S08181 1992 99 SP MM VAL 1991-12-05 15:00:00 TS -9.21167 -176.718 main 642 612 P_______P___P_ SH061992 -9.34996 -177.165 52 0 -8.93509 -175.823 42 988 -9.34996 -177.165 TC 52 7 99
1991338S08181 1992 99 SP MM VAL 1991-12-05 18:00:00 TS -9.26667 -176.367 45 987 wellington main 612 592 O_______O___O_ jtwc_sh SH061992 -9.40000 -176.800 55 0 -9.00000 -175.500 45 987 -9.40000 -176.800 TC 55 7 98
1991338S08181 1992 99 SP MM VAL 1991-12-05 21:00:00 TS -9.30579 -176.055 main 592 563 P_______P___P_ SH061992 -9.42748 -176.407 57 0 -9.06242 -175.350 47 986 -9.42748 -176.407 TC 57 6 102
1991338S08181 1992 99 SP MM VAL 1991-12-06 00:00:00 TS -9.40000 -175.733 50 985 wellington main 557 520 O_______O___O_ jtwc_sh SH061992 -9.50000 -176.000 60 0 -9.20000 -175.200 50 985 -9.50000 -176.000 TC 60 7 113
1991338S08181 1992 99 SP MM VAL 1991-12-06 03:00:00 TS -9.59585 -175.359 main 520 469 P_______P___P_ SH061992 -9.66248 -175.592 62 0 -9.46259 -174.893 52 982 -9.66248 -175.592 TC 62 9 123
1991338S08181 1992 99 SP MM VAL 1991-12-06 06:00:00 TS -9.86667 -175.000 55 980 wellington main 469 433 O_______O___O_ jtwc_sh SH061992 -9.90000 -175.200 65 1 -9.80000 -174.600 55 980 -9.90000 -175.200 TC 65 9 131
1991338S08181 1992 99 SP MM VAL 1991-12-06 09:00:00 TS -10.1558 -174.703 main 423 383 P_______P___P_ SH061992 -10.1700 -174.813 70 1 -10.1274 -174.485 57 977 -10.1700 -174.813 TC 70 8 140
1991338S08181 1992 99 SP MM VAL 1991-12-06 12:00:00 TS -10.5000 -174.467 60 975 wellington main 383 333 O_______O___O_ jtwc_sh SH061992 -10.5000 -174.500 75 1 -10.5000 -174.400 60 975 -10.5000 -174.500 TC 75 9 152
1991338S08181 1992 99 SP MM VAL 1991-12-06 15:00:00 TS -10.9166 -174.295 main 333 283 P_______P___P_ SH061992 -10.8999 -174.327 80 1 -10.9500 -174.230 60 975 -10.8999 -174.327 TC 80 9 159
1991338S08181 1992 99 SP MM VAL 1991-12-06 18:00:00 TS -11.3333 -174.133 60 975 wellington main 283 234 O_______O___O_ jtwc_sh SH061992 -11.3000 -174.200 85 2 -11.4000 -174.000 60 975 -11.3000 -174.200 TC 85 9 154
1991338S08181 1992 99 SP MM VAL 1991-12-06 21:00:00 TS -11.6850 -173.905 main 234 194 P_______P___P_ SH061992 -11.6300 -174.000 92 2 -11.7950 -173.715 65 970 -11.6300 -174.000 TC 92 8 144
1991338S08181 1992 99 SP MM VAL 1991-12-07 00:00:00 TS -11.9667 -173.667 70 965 wellington main 194 164 O_______O___O_ jtwc_sh SH061992 -11.9000 -173.800 100 3 -12.1000 -173.400 70 965 -11.9000 -173.800 TC 100 6 138
1991338S08181 1992 99 SP MM VAL 1991-12-07 03:00:00 TS -12.1600 -173.467 main 164 144 P_______P___P_ SH061992 -12.1074 -173.657 105 3 -12.2650 -173.085 75 960 -12.1074 -173.657 TC 105 5 133
1991338S08181 1992 99 SP MM VAL 1991-12-07 06:00:00 TS -12.3333 -173.267 80 955 wellington main 144 103 O_______O___O_ jtwc_sh SH061992 -12.3000 -173.500 110 3 -12.4000 -172.800 80 955 -12.3000 -173.500 TC 110 6 134
1991338S08181 1992 99 SP MM VAL 1991-12-07 09:00:00 TS -12.5759 -173.018 main 103 78 P_______P___P_ SH061992 -12.5426 -173.250 112 3 -12.6425 -172.555 82 950 -12.5426 -173.250 TC 112 7 138
1991338S08181 1992 99 SP MM VAL 1991-12-07 12:00:00 TS -12.8333 -172.800 85 945 wellington main 78 44 O_______O___O_ jtwc_sh SH061992 -12.8000 -173.000 115 4 -12.9000 -172.400 85 945 -12.8000 -173.000 TC 115 6 145
1991338S08181 1992 99 SP MM VAL 1991-12-07 15:00:00 TS -13.0666 -172.670 main 44 22 P_______P___P_ SH061992 -13.0500 -172.827 117 4 -13.1000 -172.355 87 942 -13.0500 -172.827 TC 117 5 157
1991338S08181 1992 99 SP MM VAL 1991-12-07 18:00:00 TS -13.3000 -172.600 90 940 wellington main 22 0 O_______O___O_ jtwc_sh SH061992 -13.3000 -172.700 120 4 -13.3000 -172.400 90 940 -13.3000 -172.700 TC 120 5 167
1991338S08181 1992 99 SP MM VAL 1991-12-07 21:00:00 TS -13.5725 -172.549 main 0 0 P_______P___P_ SH061992 -13.5725 -172.585 122 4 -13.5725 -172.477 90 940 -13.5725 -172.585 TC 122 5 172
1991338S08181 1992 99 SP MM VAL 1991-12-08 00:00:00 TS -13.8000 -172.533 90 940 wellington main 0 0 O_______O___O_ jtwc_sh SH061992 -13.8000 -172.500 125 4 -13.8000 -172.600 90 940 -13.8000 -172.500 TC 125 3 0
1991338S08181 1992 99 SP MM VAL 1991-12-08 03:00:00 TS -13.9158 -172.545 main 11 11 P_______P___P_ SH061992 -13.9225 -172.435 125 4 -13.9025 -172.765 90 940 -13.9225 -172.435 TC 125 2 195
1991338S08181 1992 99 SP MM VAL 1991-12-08 06:00:00 TS -13.9667 -172.567 90 940 wellington main 22 22 O_______O___O_ jtwc_sh SH061992 -14.0000 -172.400 125 4 -13.9000 -172.900 90 940 -14.0000 -172.400 TC 125 1 203
1991338S08181 1992 99 SP MM VAL 1991-12-08 09:00:00 TS -13.9975 -172.574 main 22 22 P_______P___P_ SH061992 -14.1000 -172.385 122 4 -13.7925 -172.952 90 940 -14.1000 -172.385 TC 122 1 167
1991338S08181 1992 99 SP MM VAL 1991-12-08 12:00:00 TS -14.0333 -172.567 90 940 wellington main 22 22 O_______O___O_ jtwc_sh SH061992 -14.2000 -172.400 120 4 -13.7000 -172.900 90 940 -14.2000 -172.400 TC 120 1 166
1991338S08181 1992 99 SP MM VAL 1991-12-08 15:00:00 TS -14.1358 -172.531 main 33 33 P_______P___P_ SH061992 -14.3225 -172.435 117 4 -13.7625 -172.723 90 940 -14.3225 -172.435 TC 117 2 160
1991338S08181 1992 99 SP MM VAL 1991-12-08 18:00:00 TS -14.2333 -172.500 90 940 wellington main 44 44 O_______O___O_ jtwc_sh SH061992 -14.4000 -172.500 115 4 -13.9000 -172.500 90 940 -14.4000 -172.500 TC 115 1 184
1991338S08181 1992 99 SP MM VAL 1991-12-08 21:00:00 TS -14.2725 -172.537 main 55 55 P_______P___P_ SH061992 -14.3800 -172.630 112 3 -14.0575 -172.350 90 940 -14.3800 -172.630 TC 112 0 233
1991338S08181 1992 99 SP MM VAL 1991-12-09 00:00:00 TS -14.2667 -172.533 90 940 wellington main 55 44 O_______O___O_ jtwc_sh SH061992 -14.3000 -172.700 110 3 -14.2000 -172.200 90 940 -14.3000 -172.700 TC 110 1 68
1991338S08181 1992 99 SP MM VAL 1991-12-09 03:00:00 TS -14.2192 -172.399 main 44 44 P_______P___P_ SH061992 -14.1925 -172.602 107 3 -14.2725 -171.992 87 942 -14.1925 -172.602 TC 107 3 73
1991338S08181 1992 99 SP MM VAL 1991-12-09 06:00:00 TS -14.1667 -172.200 85 945 wellington main 44 44 O_______O___O_ jtwc_sh SH061992 -14.1000 -172.400 105 3 -14.3000 -171.800 85 945 -14.1000 -172.400 TC 105 4 80
1991338S08181 1992 99 SP MM VAL 1991-12-09 09:00:00 TS -14.1542 -172.005 main 49 49 P_______P___P_ SH061992 -14.0775 -172.158 102 3 -14.3074 -171.700 85 945 -14.0775 -172.158 TC 102 4 90
1991338S08181 1992 99 SP MM VAL 1991-12-09 12:00:00 TS -14.1667 -171.800 85 945 wellington main 62 62 O_______O___O_ jtwc_sh SH061992 -14.1000 -171.900 100 3 -14.3000 -171.600 85 945 -14.1000 -171.900 TC 100 4 96
1991338S08181 1992 99 SP MM VAL 1991-12-09 15:00:00 TS -14.1950 -171.610 main 78 78 P_______P___P_ SH061992 -14.1424 -171.708 97 3 -14.3000 -171.415 85 945 -14.1424 -171.708 TC 97 4 100
1991338S08181 1992 99 SP MM VAL 1991-12-09 18:00:00 TS -14.2333 -171.400 85 945 wellington main 97 97 O_______O___O_ jtwc_sh SH061992 -14.2000 -171.500 95 2 -14.3000 -171.200 85 945 -14.2000 -171.500 TC 95 5 99
1991338S08181 1992 99 SP MM VAL 1991-12-09 21:00:00 TS -14.2642 -171.146 main 131 131 P_______P___P_ SH061992 -14.2500 -171.208 92 2 -14.2924 -171.022 85 945 -14.2500 -171.208 TC 92 5 97
1991338S08181 1992 99 SP MM VAL 1991-12-10 00:00:00 TS -14.3000 -170.867 85 945 wellington main 151 151 O_______O___O_ jtwc_sh SH061992 -14.3000 -170.900 90 2 -14.3000 -170.800 85 945 -14.3000 -170.900 TC 90 5 98
1991338S08181 1992 99 SP MM VAL 1991-12-10 03:00:00 TS -14.3349 -170.596 main 181 181 P_______P___P_ SH061992 -14.3349 -170.657 90 2 -14.3350 -170.472 85 945 -14.3349 -170.657 TC 90 6 100
1991338S08181 1992 99 SP MM VAL 1991-12-10 06:00:00 TS -14.4000 -170.300 85 945 wellington main 215 215 O_______O___O_ jtwc_sh SH061992 -14.4000 -170.400 90 2 -14.4000 -170.100 85 945 -14.4000 -170.400 TC 90 6 106
1991338S08181 1992 99 SP MM VAL 1991-12-10 09:00:00 TS -14.5133 -169.965 main 249 249 P_______P___P_ SH061992 -14.5275 -170.072 87 2 -14.4849 -169.750 82 950 -14.5275 -170.072 TC 87 7 112
1991338S08181 1992 99 SP MM VAL 1991-12-10 12:00:00 TS -14.6667 -169.600 80 955 wellington main 297 297 O_______O___O_ jtwc_sh SH061992 -14.7000 -169.700 85 2 -14.6000 -169.400 80 955 -14.7000 -169.700 TC 85 8 113
1991338S08181 1992 99 SP MM VAL 1991-12-10 15:00:00 TS -14.8225 -169.222 main 342 342 P_______P___P_ SH061992 -14.8700 -169.307 85 2 -14.7274 -169.050 80 955 -14.8700 -169.307 TC 85 8 116
1991338S08181 1992 99 SP MM VAL 1991-12-10 18:00:00 TS -15.0333 -168.833 80 955 wellington main 390 390 O_______O___O_ jtwc_sh SH061992 -15.1000 -168.900 85 2 -14.9000 -168.700 80 955 -15.1000 -168.900 TC 85 9 124
1991338S08181 1992 99 SP MM VAL 1991-12-10 21:00:00 TS -15.3174 -168.460 main 432 432 P_______P___P_ SH061992 -15.4199 -168.507 85 2 -15.1124 -168.365 77 957 -15.4199 -168.507 TC 85 10 131
1991338S08181 1992 99 SP MM VAL 1991-12-11 00:00:00 TS -15.6667 -168.067 75 960 wellington main 489 489 O_______O___O_ jtwc_sh SH061992 -15.8000 -168.100 85 2 -15.4000 -168.000 75 960 -15.8000 -168.100 TC 85 11 132
1991338S08181 1992 99 SP MM VAL 1991-12-11 03:00:00 TS -16.0341 -167.626 main 552 552 P_______P___P_ SH061992 -16.1700 -167.657 82 1 -15.7625 -167.565 75 960 -16.1700 -167.657 TC 82 12 133
1991338S08181 1992 99 SP MM VAL 1991-12-11 06:00:00 TS -16.4667 -167.167 75 960 wellington main 616 616 O_______O___O_ jtwc_sh SH061992 -16.6000 -167.200 80 1 -16.2000 -167.100 75 960 -16.6000 -167.200 TC 80 13 137
1991338S08181 1992 99 SP MM VAL 1991-12-11 09:00:00 TS -16.9649 -166.716 main 689 689 P_______P___P_ SH061992 -17.1199 -166.750 80 1 -16.6549 -166.650 75 960 -17.1199 -166.750 TC 80 14 141
1991338S08181 1992 99 SP MM VAL 1991-12-11 12:00:00 TS -17.5333 -166.267 75 960 wellington main 755 755 O_______O___O_ jtwc_sh SH061992 -17.7000 -166.300 80 1 -17.2000 -166.200 75 960 -17.7000 -166.300 TC 80 15 144
1991338S08181 1992 99 SP MM VAL 1991-12-11 15:00:00 TS -18.1416 -165.811 main 836 836 P_______P___P_ SH061992 -18.2849 -165.850 77 1 -17.8550 -165.735 72 962 -18.2849 -165.850 TC 77 15 146
1991338S08181 1992 99 SP MM VAL 1991-12-11 18:00:00 TS -18.8000 -165.367 70 965 wellington main 916 916 O_______O___O_ jtwc_sh SH061992 -18.9000 -165.400 75 1 -18.6000 -165.300 70 965 -18.9000 -165.400 TC 75 16 148
1991338S08181 1992 99 SP MM VAL 1991-12-11 21:00:00 TS -19.4675 -164.935 main 1005 1005 P_______P___P_ SH061992 -19.5275 -164.942 72 1 -19.3475 -164.920 70 965 -19.5275 -164.942 TC 72 16 151
1991338S08181 1992 99 SP MM VAL 1991-12-12 00:00:00 TS -20.2000 -164.533 70 965 wellington main 1087 1087 O_______O___O_ jtwc_sh SH061992 -20.2000 -164.500 70 1 -20.2000 -164.600 70 965 -20.2000 -164.500 TC 70 17 155
1991338S08181 1992 99 SP MM VAL 1991-12-12 03:00:00 TS -21.0174 -164.168 main 1169 1169 P_______P___P_ SH061992 -20.9050 -164.077 67 1 -21.2423 -164.349 67 967 -20.9050 -164.077 TC 67 18 159
1991338S08181 1992 99 SP MM VAL 1991-12-12 06:00:00 TS -21.9000 -163.833 65 970 wellington main 1268 1268 O_______O___O_ jtwc_sh SH061992 -21.7000 -163.700 65 1 -22.3000 -164.100 65 970 -21.7000 -163.700 TC 65 19 161
1991338S08181 1992 99 SP MM VAL 1991-12-12 09:00:00 TS -22.7866 -163.516 main 1362 1362 P_______P___P_ SH061992 -22.5824 -163.384 62 0 -23.1948 -163.780 62 972 -22.5824 -163.384 TC 62 19 162
1991338S08181 1992 99 SP MM VAL 1991-12-12 12:00:00 TS -23.7333 -163.200 60 975 wellington main 1456 1456 O_______O___O_ jtwc_sh SH061992 -23.6000 -163.100 60 0 -24.0000 -163.400 60 975 -23.6000 -163.100 TC 60 20 163
1991338S08181 1992 99 SP MM VAL 1991-12-12 15:00:00 TS -24.7328 -162.883 main 1560 1560 P_______P___P_ SH061992 -24.7540 -162.894 57 0 -24.6905 -162.862 60 975 -24.7540 -162.894 TC 57 22 163
1991338S08181 1992 99 SP MM VAL 1991-12-12 18:00:00 TS -25.8333 -162.500 60 975 wellington main 1680 1680 O_______O___O_ jtwc_sh SH061992 -26.0000 -162.500 55 0 -25.5000 -162.500 60 975 -26.0000 -162.500 TC 55 25 164
1991338S08181 1992 99 SP MM VAL 1991-12-12 21:00:00 TS -27.1332 -162.101 main 1819 1819 P_______P___P_ SH061992 -27.3435 -161.813 52 0 -26.7127 -162.679 60 975 -27.3435 -161.813 TC 52 27 159
1991338S08181 1992 99 SP MM VAL 1991-12-13 00:00:00 TS -28.3333 -161.400 60 975 wellington main 1968 1968 O_______O___O_ jtwc_sh SH061992 -28.5000 -160.600 50 0 -28.0000 -163.000 60 975 -28.5000 -160.600 TC 50 26 141
1991338S08181 1992 99 SP MM VAL 1991-12-13 03:00:00 TS -29.1779 -160.201 main 2119 2119 P_______P___P_ SH061992 -29.2294 -158.783 47 0 -29.0748 -163.039 60 975 -29.2294 -158.783 TC 47 25 125
1991338S08181 1992 99 SP MM VAL 1991-12-13 06:00:00 TS -29.7600 -159.100 60 975 wellington main 2230 2230 O_______O___O_ jtwc_sh SH061992 -29.6000 -156.500 45 0 -30.0000 -163.000 60 975 -29.6000 -156.500 TC 45 18 126
1991338S08181 1992 99 SP MM VAL 1991-12-13 09:00:00 TS -30.2556 -158.517 main 2255 2187 P_______P___P_ SH061992 -29.7237 -154.034 42 0 -30.7874 -163.000 60 975 -29.7237 -154.034 TC 42 11 183
1991338S08181 1992 99 SP MM VAL 1991-12-13 12:00:00 ET -30.9000 -159.167 60 975 wellington main 2164 1791 O_______O___O_ jtwc_sh SH061992 -29.7000 -151.500 40 0 -31.5000 -163.000 60 975 -29.7000 -151.500 EX 40 43 243
1991338S08181 1992 99 SP MM VAL 1991-12-13 15:00:00 NR -32.2125 -163.000 main 1778 1729 ________P_____ SH061992 -1 -32.2125 -163.000 57 972 EX 39 237
1991338S08181 1992 99 SP MM VAL 1991-12-13 18:00:00 NR -33.0000 -163.000 55 970 wellington main 1741 1705 ________O_____ -1 -33.0000 -163.000 55 970 18 0
1991338S08181 1992 99 SP MM VAL 1991-12-13 21:00:00 NR -33.9625 -163.000 main 1701 1671 ________P_____ -1 -33.9625 -163.000 55 967 20 0
1991338S08181 1992 99 SP MM VAL 1991-12-14 00:00:00 NR -35.0000 -163.000 55 965 wellington main 1668 1643 ________O_____ -1 -35.0000 -163.000 55 965 20 180
1991338S08181 1992 99 SP MM VAL 1991-12-14 03:00:00 NR -36.0000 -163.000 main 1641 1623 ________P_____ -1 -36.0000 -163.000 55 963 20 0
1991338S08181 1992 99 SP MM VAL 1991-12-14 06:00:00 NR -37.0000 -163.000 55 962 wellington main 1621 1609 ________O_____ -1 -37.0000 -163.000 55 962 20 0
1991338S08181 1992 99 SP MM VAL 1991-12-14 09:00:00 NR -38.0000 -163.000 main 1608 1604 ________P_____ -1 -38.0000 -163.000 55 962 20 0
1991338S08181 1992 99 SP MM VAL 1991-12-14 12:00:00 NR -39.0000 -163.000 55 962 wellington main 1603 1603 ________O_____ -1 -39.0000 -163.000 55 962 20 0
1991338S08181 1992 99 SP MM VAL 1991-12-14 15:00:00 NR -40.0000 -163.000 main 1606 1606 ________P_____ -1 -40.0000 -163.000 55 963 20 0
1991338S08181 1992 99 SP MM VAL 1991-12-14 18:00:00 NR -41.0000 -163.000 55 965 wellington main 1614 1614 ________O_____ -1 -41.0000 -163.000 55 965 19 179
1991338S08181 1992 99 SP MM VAL 1991-12-14 21:00:00 NR -41.9251 -163.000 main 1624 1624 ________P_____ -1 -41.9251 -163.000 52 966 20 0
1991338S08181 1992 99 SP MM VAL 1991-12-15 00:00:00 NR -43.0000 -163.000 50 967 wellington main 1642 1642 ________O_____ -1 -43.0000 -163.000 50 967 26 0
1991338S08181 1992 99 SP MM VAL 1991-12-15 03:00:00 NR -44.5000 -163.000 main 1673 1673 ________P_____ -1 -44.5000 -163.000 50 967 30 0
1991338S08181 1992 99 SP MM VAL 1991-12-15 06:00:00 NR -46.0000 -163.000 50 967 wellington main 1719 1719 ________O_____ -1 -46.0000 -163.000 50 967 25 179
1991338S08181 1992 99 SP MM VAL 1991-12-15 09:00:00 NR -46.9996 -162.931 main 1765 1765 ________P_____ -1 -46.9996 -162.931 50 967 20 0
1991338S08181 1992 99 SP MM VAL 1991-12-15 12:00:00 NR -48.0000 -163.000 50 967 wellington main 1803 1803 ________O_____ -1 -48.0000 -163.000 50 967 26 186
1991338S08181 1992 99 SP MM VAL 1991-12-15 15:00:00 NR -49.5741 -163.345 main 1851 1849 ________P_____ -1 -49.5741 -163.345 50 967 31 192
1991338S08181 1992 99 SP MM VAL 1991-12-15 18:00:00 NR -51.0000 -164.000 50 967 wellington main 1872 1840 ________O_____ -1 -51.0000 -164.000 50 967 25 205
1991338S08181 1992 99 SP MM VAL 1991-12-15 21:00:00 NR -51.8020 -164.997 main 1838 1782 ________P_____ -1 -51.8020 -164.997 47 967 16 231
1991338S08181 1992 99 SP MM VAL 1991-12-16 00:00:00 NR -52.0000 -166.000 45 967 wellington main 1782 1731 ________O_____ -1 -52.0000 -166.000 45 967 10 279
1991338S08181 1992 99 SP MM VAL 1991-12-16 03:00:00 NR -51.6490 -166.658 main 1721 1678 ________P_____ -1 -51.6490 -166.658 42 968 12 328
1991338S08181 1992 99 SP MM VAL 1991-12-16 06:00:00 NR -51.0000 -167.000 40 970 wellington main 1678 1646 ________O_____ -1 -51.0000 -167.000 40 970 13 344
1991338S08181 1992 99 SP MM VAL 1991-12-16 09:00:00 NR -50.4232 -167.224 main 1642 1627 ________P_____ -1 -50.4232 -167.224 40 970 10 1
1991338S08181 1992 99 SP MM VAL 1991-12-16 12:00:00 NR -50.0000 -167.000 40 970 wellington main 1634 1634 ________O_____ -1 -50.0000 -167.000 40 970 8 54
1991338S08181 1992 99 SP MM VAL 1991-12-16 15:00:00 NR -49.9266 -166.151 main 1678 1678 ________P_____ -1 -49.9266 -166.151 40 971 13 90
1991338S08181 1992 99 SP MM VAL 1991-12-16 18:00:00 NR -50.0000 -165.000 40 972 wellington main 1759 1759 ________O_____ -1 -50.0000 -165.000 40 972 14 94
1991338S08181 1992 99 SP MM VAL 1991-12-16 21:00:00 NR -50.0250 -163.949 main 1830 1830 ________P_____ -1 -50.0250 -163.949 40 972 13 90
1991338S08181 1992 99 SP MM VAL 1991-12-17 00:00:00 NR -50.0000 -163.000 40 972 wellington main 1888 ________O_____ -1 -50.0000 -163.000 40 972 12 88

デジタル台風データ・検索

IBTrACS Databaseについて

本データベースは、米国NOAAが公開する1842年以降の世界の熱帯低気圧のベストトラックデータアーカイブInternational Best Track Archive for Climate Stewardship (IBTrACS)を、ウェブで閲覧しやすい形式に変換したものです。

最終更新日:2021-12-01